voormedia.com alexa rank chart, voormedia.com alexa rank daily changes

voormedia.com alexa rank chart, voormedia.com alexa rank daily changes

voormedia.com
Actual rank:
944 459

RANK HISTORY

Date Rank Diff
2017/08/22 944 459 +12 178
2017/08/21 932 281 +4 764
2017/08/20 927 517 +52 061
2017/08/19 875 456 +22 488
2017/08/18 852 968 -37 592
2017/08/17 890 560 +2 652
2017/08/16 887 908 -53 449
2017/08/15 941 357 +12 005
2017/08/14 929 352 -8 215
2017/08/13 937 567 +58 287
2017/08/12 879 280 +12 103
2017/08/11 867 177 -30 490
2017/08/10 897 667 -23 968
2017/08/09 921 635 +56 776
2017/08/08 864 859 -5 228
2017/08/07 870 087 -51 311
2017/08/06 921 398 +33 576
2017/08/05 887 822 +23 565
2017/08/04 864 257 +3 117
2017/08/03 861 140 -32 199
2017/08/02 893 339 -19 206
2017/08/01 912 545 +16 236
2017/07/31 896 309 +130 408
2017/07/30 765 901 -21 207
2017/07/29 787 108 +56 186
2017/07/28 730 922 -14 772
2017/07/27 745 694 +31 360
2017/07/26 714 334 +3 061
2017/07/25 711 273 -553
2017/07/24 711 826 +6 619
2017/07/23 705 207 -2 311
2017/07/22 707 518 +22 262
2017/07/21 685 256 +3 956
2017/07/20 681 300 -32 402
2017/07/19 713 702 -33 069
2017/07/18 746 771 -4 413
2017/07/17 751 184 +14 651
2017/07/16 736 533 -789
2017/07/15 737 322 +8 923
2017/07/14 728 399 +11 887
2017/07/13 716 512 -34 140
2017/07/12 750 652 -29 215
2017/07/11 779 867 -2 565
2017/07/10 782 432 -12 769
2017/07/09 795 201 +2 721
2017/07/08 792 480 +3 317
2017/07/07 789 163 +58 773
2017/07/06 730 390 -4 019
2017/07/05 734 409 -13 201
2017/07/04 747 610 +13 816
2017/07/03 733 794 -22 201
2017/07/02 755 995 +31 990
2017/07/01 724 005 -44 010
2017/06/30 768 015 +3 895
2017/06/29 764 120 -56 345
2017/06/28 820 465 +32 402
2017/06/27 788 063 -23 680
2017/06/26 811 743 +8 886
2017/06/25 802 857 +4 427
2017/06/24 798 430 +23 836
2017/06/23 774 594

WIDGET FOR YOUR SITE

DOMAINS WITH THE NEAREST RANK

Domain Rank
noa-mobile.hr 944 454
modelmapper.org 944 455
wamiz.com.br 944 456
webdesignland.com 944 457
tuneecu.com 944 458
voormedia.com 944 459
rorasti.ir 944 460
acclaim-music.com 944 461
fotomarketshop.it 944 462
jaspernationalpark.com 944 463
glugevents.com 944 464

DOMAINS WITH THE NEAREST RANK BY TLD .com

Domain Rank
spacelaunchreport.com 944 446
yogeshkhetani.com 944 448
besttoys4toddlers.com 944 453
webdesignland.com 944 457
tuneecu.com 944 458
voormedia.com 944 459
acclaim-music.com 944 461
jaspernationalpark.com 944 463
glugevents.com 944 464
walldrug.com 944 466
mediabharti.com 944 467